Time;durP1;ratioP1;P1;durP2;ratioP2;P2;SDS_P1;SDS_P2;PMS_P1;PMS_P2;Temp;Humidity;BMP_temperature;BMP_pressure;BME280_temperature;BME280_humidity;BME280_pressure;Samples;Min_cycle;Max_cycle;Signal;HPM_P1;HPM_P2
2023/07/29 00:01:37;;;;;;;0.00;0.00;;;;;;;17.81;100.00;100686.53;5030212;28;20056;-49
2023/07/29 00:04:02;;;;;;;0.00;0.00;;;;;;;17.76;100.00;100679.84;5030259;28;20079;-44
2023/07/29 00:06:28;;;;;;;0.00;0.00;;;;;;;17.72;100.00;100673.22;5028941;28;20040;-46
2023/07/29 00:08:53;;;;;;;0.00;0.00;;;;;;;17.67;100.00;100670.38;5030255;28;20037;-47
2023/07/29 00:11:19;;;;;;;0.00;0.00;;;;;;;17.63;100.00;100669.19;5030949;28;20088;-49
2023/07/29 00:13:44;;;;;;;0.00;0.00;;;;;;;17.58;100.00;100666.31;5030931;28;20060;-47
2023/07/29 00:16:10;;;;;;;0.00;0.00;;;;;;;17.54;100.00;100665.16;5031358;28;20104;-44
2023/07/29 00:18:35;;;;;;;0.10;0.00;;;;;;;17.51;100.00;100671.06;5030826;28;20531;-46
2023/07/29 00:21:01;;;;;;;0.00;0.00;;;;;;;17.48;100.00;100661.47;5030403;28;20036;-46
2023/07/29 00:23:26;;;;;;;0.00;0.00;;;;;;;17.48;100.00;100660.59;5030282;28;20091;-44
2023/07/29 00:25:52;;;;;;;0.00;0.00;;;;;;;17.42;100.00;100667.81;5030446;28;20030;-47
2023/07/29 00:28:17;;;;;;;0.00;0.00;;;;;;;17.43;100.00;100657.75;5030185;28;20116;-47
2023/07/29 00:30:42;;;;;;;0.00;0.00;;;;;;;17.40;100.00;100652.78;5029169;28;20059;-45
2023/07/29 00:33:08;;;;;;;0.00;0.00;;;;;;;17.38;100.00;100660.34;5030067;28;20033;-46
2023/07/29 00:35:34;;;;;;;0.00;0.00;;;;;;;17.38;100.00;100661.19;5030186;28;20025;-47
2023/07/29 00:38:00;;;;;;;0.00;0.00;;;;;;;17.33;100.00;100652.88;5030122;28;20520;-48
2023/07/29 00:40:28;;;;;;;0.00;0.00;;;;;;;17.34;100.00;100655.38;5030768;28;20090;-48
2023/07/29 00:42:53;;;;;;;0.00;0.00;;;;;;;17.33;100.00;100653.72;5030107;28;20030;-44
2023/07/29 00:45:19;;;;;;;0.00;0.00;;;;;;;17.31;100.00;100653.09;5031414;28;20036;-43
2023/07/29 00:47:44;;;;;;;0.00;0.00;;;;;;;17.30;100.00;100653.34;5032625;28;20048;-45
2023/07/29 00:50:11;;;;;;;0.10;0.00;;;;;;;17.31;100.00;100660.44;5033831;28;20021;-44
2023/07/29 00:52:37;;;;;;;0.00;0.00;;;;;;;17.29;100.00;100662.56;5034253;28;20723;-45
2023/07/29 00:55:03;;;;;;;0.00;0.00;;;;;;;17.25;100.00;100651.31;5034355;28;20026;-45
2023/07/29 00:57:30;;;;;;;0.00;0.00;;;;;;;17.25;100.00;100650.50;5049413;28;20050;-47
2023/07/29 00:59:55;;;;;;;0.00;0.00;;;;;;;17.23;100.00;100658.88;5033458;28;20079;-45
2023/07/29 01:02:22;;;;;;;0.00;0.00;;;;;;;17.22;100.00;100653.66;5033377;28;20053;-48
2023/07/29 01:04:54;;;;;;;0.00;0.00;;;;;;;17.21;100.00;100657.44;5033401;28;20055;-44
2023/07/29 01:07:40;;;;;;;0.00;0.00;;;;;;;17.21;100.00;100660.16;5033522;28;20037;-45
2023/07/29 01:10:26;;;;;;;0.00;0.00;;;;;;;17.18;100.00;100653.31;5048568;28;20033;-46
2023/07/29 01:13:16;;;;;;;0.00;0.00;;;;;;;17.14;100.00;100653.97;5048371;28;20417;-43
2023/07/29 01:15:44;;;;;;;0.00;0.00;;;;;;;17.15;100.00;100651.03;5031957;28;20030;-47
2023/07/29 01:18:23;;;;;;;0.00;0.00;;;;;;;17.14;100.00;100652.13;5033087;28;20064;-46
2023/07/29 01:20:52;;;;;;;0.00;0.00;;;;;;;17.10;100.00;100653.63;5033617;28;20120;-43
2023/07/29 01:23:26;;;;;;;0.00;0.00;;;;;;;17.09;100.00;100654.69;5048745;28;20078;-43
2023/07/29 01:25:51;;;;;;;0.00;0.00;;;;;;;17.07;100.00;100654.09;5033348;28;20105;-46
2023/07/29 01:28:16;;;;;;;0.00;0.00;;;;;;;17.07;100.00;100656.81;5031706;28;20109;-43
2023/07/29 01:30:43;;;;;;;0.00;0.00;;;;;;;17.04;100.00;100665.44;5032958;28;20032;-45
2023/07/29 01:33:25;;;;;;;0.00;0.00;;;;;;;17.01;100.00;100660.41;5032987;28;20068;-42
2023/07/29 01:35:55;;;;;;;0.00;0.00;;;;;;;17.00;100.00;100658.78;5033693;28;20052;-45
2023/07/29 01:38:27;;;;;;;0.00;0.00;;;;;;;16.96;100.00;100655.69;5048079;28;20025;-44
2023/07/29 01:40:52;;;;;;;0.00;0.00;;;;;;;16.94;100.00;100656.97;5048893;28;20029;-45
2023/07/29 01:43:23;;;;;;;0.00;0.00;;;;;;;16.94;100.00;100663.25;5049186;28;20032;-46
2023/07/29 01:45:48;;;;;;;0.00;0.00;;;;;;;16.91;100.00;100655.53;5034058;28;20108;-44
2023/07/29 01:48:14;;;;;;;0.00;0.00;;;;;;;16.89;100.00;100655.75;5034501;28;20063;-44
2023/07/29 01:50:39;;;;;;;0.00;0.00;;;;;;;16.86;100.00;100645.34;5034114;28;20029;-45
2023/07/29 01:53:05;;;;;;;0.00;0.00;;;;;;;16.86;100.00;100649.97;5033318;28;20484;-43
2023/07/29 01:55:30;;;;;;;0.00;0.00;;;;;;;16.85;100.00;100649.13;5033573;28;20025;-45
2023/07/29 01:57:55;;;;;;;0.00;0.00;;;;;;;16.84;100.00;100650.19;5032106;28;20109;-46
2023/07/29 02:00:21;;;;;;;0.00;0.00;;;;;;;16.84;100.00;100655.63;5032538;28;20105;-46
2023/07/29 02:02:46;;;;;;;0.00;0.00;;;;;;;16.83;100.00;100659.41;5048168;28;20372;-43
2023/07/29 02:05:12;;;;;;;0.00;0.00;;;;;;;16.82;100.00;100649.56;5032611;28;20372;-46
2023/07/29 02:07:37;;;;;;;0.00;0.00;;;;;;;16.83;100.00;100643.09;5033137;28;20056;-46
2023/07/29 02:10:03;;;;;;;0.00;0.00;;;;;;;16.85;100.00;100648.28;5032696;28;20025;-43
2023/07/29 02:12:28;;;;;;;0.00;0.00;;;;;;;16.82;100.00;100644.13;5032272;28;20032;-45
2023/07/29 02:14:54;;;;;;;0.00;0.00;;;;;;;16.80;100.00;100640.84;5032238;28;20021;-44
2023/07/29 02:17:19;;;;;;;0.00;0.00;;;;;;;16.79;100.00;100636.44;5032191;28;20408;-45
2023/07/29 02:19:44;;;;;;;0.00;0.00;;;;;;;16.80;100.00;100632.69;5030735;28;20405;-48
2023/07/29 02:22:13;;;;;;;0.00;0.00;;;;;;;16.80;100.00;100634.56;5031866;28;20043;-46
2023/07/29 02:24:39;;;;;;;0.00;0.00;;;;;;;16.78;100.00;100636.69;5032192;28;20342;-47
2023/07/29 02:27:04;;;;;;;0.00;0.00;;;;;;;16.77;100.00;100635.88;5031888;28;20025;-44
2023/07/29 02:29:30;;;;;;;0.00;0.00;;;;;;;16.77;100.00;100633.16;5031756;28;20073;-43
2023/07/29 02:31:55;;;;;;;0.00;0.00;;;;;;;16.76;100.00;100636.88;5031885;28;20112;-43
2023/07/29 02:34:21;;;;;;;0.00;0.00;;;;;;;16.76;100.00;100631.44;5031449;28;20030;-46
2023/07/29 02:36:46;;;;;;;0.00;0.00;;;;;;;16.78;100.00;100626.63;5047274;28;20033;-44
2023/07/29 02:39:11;;;;;;;0.00;0.00;;;;;;;16.79;100.00;100627.47;5032049;28;20074;-46
2023/07/29 02:41:37;;;;;;;0.00;0.00;;;;;;;16.79;100.00;100619.31;5031685;28;20029;-45
2023/07/29 02:44:03;;;;;;;0.00;0.00;;;;;;;16.80;100.00;100610.94;5031562;28;20383;-43
2023/07/29 02:46:28;;;;;;;0.00;0.00;;;;;;;16.79;100.00;100609.25;5031545;28;20013;-47
2023/07/29 02:48:54;;;;;;;0.00;0.00;;;;;;;16.79;100.00;100622.03;5031615;28;20542;-45
2023/07/29 02:51:19;;;;;;;0.00;0.00;;;;;;;16.78;100.00;100623.09;5031360;28;20032;-45
2023/07/29 02:53:44;;;;;;;0.00;0.00;;;;;;;16.80;100.00;100616.38;5031501;28;20234;-44
2023/07/29 02:56:10;;;;;;;0.00;0.00;;;;;;;16.81;100.00;100623.47;5031793;28;20036;-46
2023/07/29 02:58:36;;;;;;;0.00;0.00;;;;;;;16.85;100.00;100610.22;5031183;28;20072;-46
2023/07/29 03:01:03;;;;;;;0.00;0.00;;;;;;;16.85;100.00;100616.53;5031303;28;20108;-48
2023/07/29 03:03:28;;;;;;;0.00;0.00;;;;;;;16.85;100.00;100624.69;5031299;28;20139;-47
2023/07/29 03:06:01;;;;;;;0.00;0.00;;;;;;;16.86;100.00;100618.16;5030417;28;20133;-44
2023/07/29 03:08:27;;;;;;;0.00;0.00;;;;;;;16.87;100.00;100621.72;5031984;28;20114;-45
2023/07/29 03:10:52;;;;;;;0.00;0.00;;;;;;;16.88;100.00;100624.22;5031456;28;20496;-44
2023/07/29 03:13:17;;;;;;;0.00;0.00;;;;;;;16.87;100.00;100636.13;5031141;28;20045;-48
2023/07/29 03:15:43;;;;;;;0.00;0.00;;;;;;;16.87;100.00;100630.69;5030761;28;20166;-46
2023/07/29 03:18:08;;;;;;;0.00;0.00;;;;;;;16.89;100.00;100634.00;5030931;28;20033;-43
2023/07/29 03:20:33;;;;;;;0.00;0.00;;;;;;;16.90;100.00;100632.13;5030760;28;20069;-44
2023/07/29 03:22:59;;;;;;;0.00;0.00;;;;;;;16.94;100.00;100632.50;5030840;28;20067;-44
2023/07/29 03:25:24;;;;;;;0.00;0.00;;;;;;;16.99;100.00;100638.91;5030835;28;20068;-46
2023/07/29 03:27:49;;;;;;;0.00;0.00;;;;;;;17.01;100.00;100633.22;5031069;28;20029;-48
2023/07/29 03:30:15;;;;;;;0.00;0.00;;;;;;;16.98;100.00;100630.97;5030693;28;20021;-46
2023/07/29 03:32:44;;;;;;;0.00;0.00;;;;;;;16.97;100.00;100626.59;5030552;28;20057;-47
2023/07/29 03:35:09;;;;;;;0.00;0.00;;;;;;;16.94;100.00;100621.63;5046085;28;20025;-44
2023/07/29 03:37:34;;;;;;;0.00;0.00;;;;;;;16.98;100.00;100642.72;5030520;28;20032;-46
2023/07/29 03:40:00;;;;;;;0.00;0.00;;;;;;;16.96;100.00;100642.09;5030930;28;20033;-46
2023/07/29 03:42:25;;;;;;;0.00;0.00;;;;;;;16.96;100.00;100642.09;5030654;28;20057;-44
2023/07/29 03:44:50;;;;;;;0.00;0.00;;;;;;;16.99;100.00;100649.78;5031044;28;20479;-46
2023/07/29 03:47:16;;;;;;;0.00;0.00;;;;;;;17.01;100.00;100633.22;5032087;28;20533;-44
2023/07/29 03:49:41;;;;;;;0.00;0.00;;;;;;;17.00;100.00;100620.72;5032657;28;20032;-44
2023/07/29 03:52:06;;;;;;;0.00;0.00;;;;;;;17.02;100.00;100632.19;5032412;28;20021;-43
2023/07/29 03:54:32;;;;;;;0.00;0.00;;;;;;;17.00;100.00;100637.03;5031634;28;20109;-46
2023/07/29 03:56:57;;;;;;;0.00;0.00;;;;;;;17.04;100.00;100632.78;5030562;28;20081;-45
2023/07/29 03:59:23;;;;;;;0.00;0.00;;;;;;;17.02;100.00;100640.34;5031009;28;20051;-45
2023/07/29 04:01:48;;;;;;;0.00;0.00;;;;;;;17.00;100.00;100643.28;5033872;28;20025;-48
2023/07/29 04:04:13;;;;;;;0.00;0.00;;;;;;;17.01;100.00;100633.22;5030690;28;20029;-45
2023/07/29 04:06:39;;;;;;;0.00;0.00;;;;;;;17.00;100.00;100626.16;5030380;28;20038;-43
2023/07/29 04:09:04;;;;;;;0.00;0.00;;;;;;;16.99;100.00;100630.75;5029283;28;20078;-45
2023/07/29 04:11:29;;;;;;;0.00;0.00;;;;;;;16.98;100.00;100629.13;5028888;28;20026;-44
2023/07/29 04:13:55;;;;;;;0.00;0.00;;;;;;;16.98;100.00;100629.13;5030474;28;20026;-46
2023/07/29 04:16:20;;;;;;;0.00;0.00;;;;;;;17.00;100.00;100626.16;5030245;28;20570;-46
2023/07/29 04:18:45;;;;;;;0.00;0.00;;;;;;;16.99;100.00;100633.47;5029087;28;20052;-47
2023/07/29 04:21:11;;;;;;;0.00;0.00;;;;;;;17.02;100.00;100637.63;5032852;28;20029;-42
2023/07/29 04:23:36;;;;;;;0.00;0.00;;;;;;;17.03;100.00;100644.72;5034248;28;20049;-43
2023/07/29 04:26:01;;;;;;;0.00;0.00;;;;;;;17.04;100.00;100643.66;5032908;28;20033;-42
2023/07/29 04:28:27;;;;;;;0.00;0.00;;;;;;;17.06;100.00;100645.09;5034152;28;20376;-44
2023/07/29 04:30:52;;;;;;;0.00;0.00;;;;;;;17.06;100.00;100646.97;5034565;28;20116;-45
2023/07/29 04:33:17;;;;;;;0.00;0.00;;;;;;;17.01;100.00;100644.97;5034070;28;20028;-44
2023/07/29 04:35:43;;;;;;;0.00;0.00;;;;;;;17.05;100.00;100650.75;5034041;28;20673;-44
2023/07/29 04:38:08;;;;;;;0.00;0.00;;;;;;;17.04;100.00;100649.09;5033897;28;20036;-48
2023/07/29 04:40:34;;;;;;;0.00;0.00;;;;;;;17.03;100.00;100650.16;5033906;28;20383;-49
2023/07/29 04:43:02;;;;;;;0.00;0.00;;;;;;;17.04;100.00;100652.66;5033568;28;20030;-47
2023/07/29 04:45:29;;;;;;;0.00;0.00;;;;;;;17.05;100.00;100653.47;5034150;28;20026;-46
2023/07/29 04:47:54;;;;;;;0.00;0.00;;;;;;;17.09;100.00;100651.97;5033744;28;20483;-49
2023/07/29 04:50:20;;;;;;;0.00;0.00;;;;;;;17.10;100.00;100653.63;5033555;28;20314;-44
2023/07/29 04:52:45;;;;;;;0.00;0.00;;;;;;;17.12;100.00;100654.22;5033514;28;20021;-44
2023/07/29 04:55:10;;;;;;;0.00;0.00;;;;;;;17.12;100.00;100659.66;5033600;28;20041;-44
2023/07/29 04:57:36;;;;;;;0.00;0.00;;;;;;;17.18;100.00;100655.19;5033370;28;20049;-44
2023/07/29 05:00:03;;;;;;;0.00;0.00;;;;;;;17.16;100.00;100658.13;5033421;28;20038;-45
2023/07/29 05:02:28;;;;;;;0.00;0.00;;;;;;;17.15;100.00;100651.03;5032044;28;20037;-49
2023/07/29 05:04:53;;;;;;;0.00;0.00;;;;;;;17.20;100.00;100656.63;5033366;28;20108;-47
2023/07/29 05:07:19;;;;;;;0.00;0.00;;;;;;;17.19;100.00;100657.66;5033246;28;20034;-45
2023/07/29 05:09:44;;;;;;;0.00;0.00;;;;;;;17.20;100.00;100664.78;5033309;28;20064;-45
2023/07/29 05:12:09;;;;;;;0.00;0.00;;;;;;;17.23;100.00;100658.06;5033069;28;20024;-49
2023/07/29 05:14:35;;;;;;;0.00;0.00;;;;;;;17.24;100.00;100648.81;5033272;28;20037;-45
2023/07/29 05:17:00;;;;;;;0.00;0.00;;;;;;;17.25;100.00;100645.06;5033285;28;20082;-46
2023/07/29 05:19:26;;;;;;;0.00;0.00;;;;;;;17.31;100.00;100638.69;5033789;28;20533;-45
2023/07/29 05:21:51;;;;;;;0.00;0.00;;;;;;;17.34;100.00;100633.59;5033851;28;20036;-45
2023/07/29 05:24:17;;;;;;;0.00;0.00;;;;;;;17.33;100.00;100637.41;5034015;28;20034;-44
2023/07/29 05:26:42;;;;;;;0.00;0.00;;;;;;;17.38;100.00;100635.84;5033718;28;20026;-46
2023/07/29 05:29:08;;;;;;;0.00;0.00;;;;;;;17.39;100.00;100637.53;5033242;28;20492;-44
2023/07/29 05:31:33;;;;;;;0.00;0.00;;;;;;;17.45;100.00;100644.75;5033495;28;20384;-44
2023/07/29 05:33:59;;;;;;;0.00;0.00;;;;;;;17.44;100.00;100638.50;5033084;28;20051;-46
2023/07/29 05:36:24;;;;;;;0.00;0.00;;;;;;;17.44;100.00;100640.38;5033451;28;20471;-45
2023/07/29 05:38:51;;;;;;;0.00;0.00;;;;;;;17.44;100.00;100633.03;5033828;28;20546;-44
2023/07/29 05:41:17;;;;;;;0.00;0.00;;;;;;;17.45;100.00;100640.13;5033286;28;20383;-49
2023/07/29 05:43:43;;;;;;;0.00;0.00;;;;;;;17.45;100.00;100639.31;5032725;28;20032;-47
2023/07/29 05:46:09;;;;;;;0.00;0.00;;;;;;;17.46;100.00;100636.38;5032972;28;20033;-47
2023/07/29 05:48:35;;;;;;;0.00;0.00;;;;;;;17.49;100.00;100637.81;5032830;28;20055;-46
2023/07/29 05:51:00;;;;;;;0.00;0.00;;;;;;;17.51;100.00;100639.22;5032847;28;20033;-46
2023/07/29 05:53:26;;;;;;;0.00;0.00;;;;;;;17.54;100.00;100643.38;5032484;28;20025;-44
2023/07/29 05:55:51;;;;;;;0.00;0.00;;;;;;;17.54;100.00;100644.19;5032647;28;20771;-46
2023/07/29 05:58:16;;;;;;;0.00;0.00;;;;;;;17.59;100.00;100646.22;5032423;28;20052;-47
2023/07/29 06:00:42;;;;;;;0.00;0.00;;;;;;;17.62;100.00;100645.75;5032487;28;20493;-44
2023/07/29 06:03:07;;;;;;;0.00;0.00;;;;;;;17.65;100.00;100639.03;5032369;28;20040;-45
2023/07/29 06:05:32;;;;;;;0.00;0.00;;;;;;;17.70;100.00;100648.13;5032414;28;20022;-46
2023/07/29 06:07:58;;;;;;;0.00;0.00;;;;;;;17.72;100.00;100646.03;5030990;28;20025;-45
2023/07/29 06:10:23;;;;;;;0.00;0.00;;;;;;;17.77;100.00;100646.16;5031138;28;20112;-48
2023/07/29 06:12:49;;;;;;;0.00;0.00;;;;;;;17.80;100.00;100641.31;5032537;28;20075;-47
2023/07/29 06:15:14;;;;;;;0.00;0.00;;;;;;;17.85;100.00;100641.44;5032105;28;20060;-45
2023/07/29 06:17:40;;;;;;;0.00;0.00;;;;;;;17.88;100.00;100643.72;5032128;28;20025;-50
2023/07/29 06:20:06;;;;;;;0.00;0.00;;;;;;;17.93;100.00;100639.22;5032404;28;20030;-46
2023/07/29 06:22:31;;;;;;;0.00;0.00;;;;;;;18.03;100.00;100644.06;5032312;28;20276;-45
2023/07/29 06:24:57;;;;;;;0.00;0.00;;;;;;;18.03;100.00;100637.78;5031900;28;20014;-50
2023/07/29 06:27:22;;;;;;;0.00;0.00;;;;;;;18.03;100.00;100645.94;5031896;28;20057;-44
2023/07/29 06:29:48;;;;;;;0.00;0.00;;;;;;;18.01;100.00;100646.19;5031760;28;20057;-49
2023/07/29 06:32:13;;;;;;;0.00;0.00;;;;;;;18.03;100.00;100640.50;5031552;28;20472;-46
2023/07/29 06:34:38;;;;;;;0.00;0.00;;;;;;;18.01;100.00;100646.19;5031891;28;20041;-47
2023/07/29 06:37:04;;;;;;;0.00;0.00;;;;;;;18.03;100.00;100656.84;5031935;28;20025;-46
2023/07/29 06:39:29;;;;;;;0.00;0.00;;;;;;;18.01;100.00;100658.97;5032146;28;20025;-44
2023/07/29 06:41:54;;;;;;;0.00;0.00;;;;;;;17.97;100.00;100658.63;5032436;28;20029;-46
2023/07/29 06:44:20;;;;;;;0.00;0.00;;;;;;;17.96;100.00;100652.34;5030598;28;20263;-44
2023/07/29 06:46:46;;;;;;;0.00;0.00;;;;;;;18.64;100.00;100653.63;5031987;28;20100;-45
2023/07/29 06:49:11;;;;;;;0.00;0.00;;;;;;;18.95;100.00;100629.72;5032253;28;20025;-44
2023/07/29 06:51:37;;;;;;;0.00;0.00;;;;;;;19.60;100.00;100623.00;5032053;28;20029;-46
2023/07/29 06:54:02;;;;;;;0.00;0.00;;;;;;;19.74;100.00;100609.88;5032052;28;20025;-46
2023/07/29 06:56:28;;;;;;;0.00;0.00;;;;;;;19.66;100.00;100593.88;5032186;28;20144;-46
2023/07/29 06:58:54;;;;;;;0.00;0.00;;;;;;;20.11;100.00;100591.03;5031859;28;20484;-46
2023/07/29 07:01:19;;;;;;;0.00;0.00;;;;;;;20.80;100.00;100589.78;5033499;28;20021;-45
2023/07/29 07:03:44;;;;;;;0.00;0.00;;;;;;;20.99;100.00;100579.34;5033149;28;20032;-46
2023/07/29 07:06:10;;;;;;;0.00;0.00;;;;;;;20.70;100.00;100568.63;5034028;28;20025;-43
2023/07/29 07:08:35;;;;;;;0.00;0.00;;;;;;;20.42;100.00;100586.00;5035868;28;20034;-48
2023/07/29 07:11:00;;;;;;;0.00;0.00;;;;;;;20.01;100.00;100577.28;5035951;28;20021;-46
2023/07/29 07:13:26;;;;;;;0.00;0.00;;;;;;;19.95;100.00;100576.34;5035227;28;20061;-45
2023/07/29 07:15:55;;;;;;;0.00;0.00;;;;;;;20.46;100.00;100584.44;5033673;28;20026;-44
2023/07/29 07:18:22;;;;;;;0.00;0.00;;;;;;;20.90;100.00;100569.91;5034477;28;20045;-44
2023/07/29 07:20:50;;;;;;;0.00;0.00;;;;;;;20.87;100.00;100568.53;5032710;28;20025;-43
2023/07/29 07:23:16;;;;;;;0.00;0.00;;;;;;;20.97;100.00;100581.50;5031226;28;20033;-44
2023/07/29 07:25:44;;;;;;;0.00;0.00;;;;;;;20.79;100.00;100578.00;5030993;28;20032;-43
2023/07/29 07:28:10;;;;;;;0.00;0.00;;;;;;;20.60;100.00;100579.44;5030831;28;20109;-46
2023/07/29 07:30:35;;;;;;;0.00;0.00;;;;;;;20.36;100.00;100587.03;5030927;28;20504;-46
2023/07/29 07:33:01;;;;;;;0.00;0.00;;;;;;;20.14;100.00;100585.09;5012947;28;20021;-46
2023/07/29 07:35:26;;;;;;;0.00;0.00;;;;;;;20.03;100.00;100593.38;5031394;28;20387;-47
2023/07/29 07:37:52;;;;;;;0.00;0.00;;;;;;;19.84;100.00;100590.09;5031321;28;20036;-46
2023/07/29 07:40:17;;;;;;;0.00;0.00;;;;;;;19.64;100.00;100606.94;5030732;28;20061;-46
2023/07/29 07:42:43;;;;;;;0.00;0.00;;;;;;;19.53;100.00;100605.94;5029548;28;20018;-43
2023/07/29 07:45:08;;;;;;;0.00;0.00;;;;;;;19.69;100.00;100609.78;5030401;28;20030;-45
2023/07/29 07:47:33;;;;;;;0.00;0.00;;;;;;;20.03;100.00;100598.84;5030874;28;20025;-44
2023/07/29 07:49:59;;;;;;;0.00;0.00;;;;;;;20.73;100.00;100597.38;5030632;28;20419;-45
2023/07/29 07:52:24;;;;;;;0.00;0.00;;;;;;;20.80;100.00;100595.25;5030795;28;20030;-47
2023/07/29 07:54:54;;;;;;;0.00;0.00;;;;;;;20.72;100.00;100595.69;5030854;28;20203;-47
2023/07/29 07:57:21;;;;;;;0.00;0.00;;;;;;;20.66;100.00;100592.06;5034605;28;20570;-48
2023/07/29 07:59:46;;;;;;;0.00;0.00;;;;;;;20.52;100.00;100599.00;5035012;28;20021;-45
2023/07/29 08:02:11;;;;;;;0.00;0.00;;;;;;;20.39;100.00;100606.47;5034447;28;20048;-43
2023/07/29 08:04:37;;;;;;;0.00;0.00;;;;;;;20.38;100.00;100606.75;5034861;28;20132;-46
2023/07/29 08:07:02;;;;;;;0.00;0.00;;;;;;;20.32;100.00;100614.03;5034568;28;20044;-48
2023/07/29 08:09:27;;;;;;;0.00;0.00;;;;;;;20.47;100.00;100626.25;5034578;28;20104;-46
2023/07/29 08:11:53;;;;;;;0.00;0.00;;;;;;;20.67;100.00;100623.81;5033021;28;20029;-47
2023/07/29 08:14:18;;;;;;;0.00;0.00;;;;;;;20.71;100.00;100630.44;5034736;28;20079;-46
2023/07/29 08:16:44;;;;;;;0.00;0.00;;;;;;;20.64;100.00;100620.75;5036940;28;20097;-45
2023/07/29 08:19:09;;;;;;;0.00;0.00;;;;;;;20.48;100.00;100630.63;5036814;28;20454;-43
2023/07/29 08:21:35;;;;;;;0.00;0.00;;;;;;;20.42;100.00;100628.94;5036674;28;20029;-47
2023/07/29 08:24:00;;;;;;;0.00;0.00;;;;;;;20.93;100.00;100613.16;5035322;28;20383;-43
2023/07/29 08:26:26;;;;;;;0.00;0.00;;;;;;;21.54;100.00;100613.84;5035122;28;20037;-45
2023/07/29 08:28:51;;;;;;;0.00;0.00;;;;;;;22.28;100.00;100617.69;5034582;28;20032;-46
2023/07/29 08:31:17;;;;;;;0.00;0.00;;;;;;;22.43;100.00;100616.94;5034003;28;20025;-44
2023/07/29 08:33:42;;;;;;;0.00;0.00;;;;;;;22.73;100.00;100613.50;5032919;28;20057;-45
2023/07/29 08:36:07;;;;;;;0.00;0.00;;;;;;;22.44;100.00;100605.72;5034140;28;20146;-44
2023/07/29 08:38:33;;;;;;;0.00;0.00;;;;;;;22.11;100.00;100610.41;5034060;28;20054;-44
2023/07/29 08:41:16;;;;;;;0.00;0.00;;;;;;;21.94;100.00;100608.94;5033871;28;20025;-45
2023/07/29 08:43:48;;;;;;;0.00;0.00;;;;;;;21.37;100.00;100607.63;5033913;28;20597;-43
2023/07/29 08:46:15;;;;;;;0.00;0.00;;;;;;;21.34;100.00;100624.56;5032595;28;20063;-45
2023/07/29 08:48:41;;;;;;;;;;;;;;;21.33;100.00;100628.38;5034067;28;20053;-45
2023/07/29 08:51:09;;;;;;;0.00;0.00;;;;;;;21.06;100.00;100634.66;5033727;28;19987;-47
2023/07/29 08:53:35;;;;;;;0.00;0.00;;;;;;;20.92;100.00;100633.41;5032324;28;20040;-44
2023/07/29 08:56:01;;;;;;;0.00;0.00;;;;;;;20.59;100.00;100629.75;5033213;28;20034;-44
2023/07/29 08:58:26;;;;;;;0.00;0.00;;;;;;;20.52;100.00;100635.34;5033554;28;20137;-47
2023/07/29 09:00:52;;;;;;;0.00;0.00;;;;;;;20.13;100.00;100626.31;5033541;28;20088;-48
2023/07/29 09:03:17;;;;;;;0.00;0.00;;;;;;;20.06;100.00;100633.88;5033275;28;20034;-47
2023/07/29 09:05:43;;;;;;;0.00;0.00;;;;;;;19.90;100.00;100641.81;5032929;28;20480;-44
2023/07/29 09:08:08;;;;;;;0.00;0.00;;;;;;;19.66;100.00;100640.28;5032040;28;20017;-46
2023/07/29 09:10:37;;;;;;;0.00;0.00;;;;;;;19.68;100.00;100632.72;5033374;28;20057;-44
2023/07/29 09:13:03;;;;;;;0.00;0.00;;;;;;;19.60;100.00;100633.94;5033237;28;20026;-45
2023/07/29 09:15:30;;;;;;;0.00;0.00;;;;;;;19.52;100.00;100637.88;5033267;28;20082;-45
2023/07/29 09:17:59;;;;;;;0.00;0.00;;;;;;;19.63;100.00;100643.53;5033350;28;20471;-45
2023/07/29 09:20:28;;;;;;;0.00;0.00;;;;;;;19.57;100.00;100644.53;5033326;28;20053;-43
2023/07/29 09:22:55;;;;;;;0.00;0.00;;;;;;;19.57;100.00;100671.81;5048933;28;20108;-42
2023/07/29 09:25:27;;;;;;;0.00;0.00;;;;;;;19.50;100.00;100677.41;5033387;28;20075;-44
2023/07/29 09:27:58;;;;;;;0.00;0.00;;;;;;;19.37;100.00;100688.63;5031683;28;20036;-45
2023/07/29 09:30:24;;;;;;;0.00;0.00;;;;;;;19.21;100.00;100680.16;5033043;28;20106;-44
2023/07/29 09:32:56;;;;;;;0.30;0.00;;;;;;;19.17;100.00;100672.69;5032932;28;20018;-46
2023/07/29 09:35:21;;;;;;;0.00;0.00;;;;;;;19.26;100.00;100668.50;5033145;28;20384;-45
2023/07/29 09:37:47;;;;;;;0.00;0.00;;;;;;;19.25;100.00;100675.06;5033253;28;20030;-45
2023/07/29 09:40:16;;;;;;;0.00;0.00;;;;;;;19.53;100.00;100669.56;5033015;28;20423;-44
2023/07/29 09:42:50;;;;;;;0.00;0.00;;;;;;;19.81;100.00;100665.16;5033434;28;20108;-46
2023/07/29 09:45:26;;;;;;;0.00;0.00;;;;;;;19.69;100.00;100662.50;5032329;28;20104;-44
2023/07/29 09:47:52;;;;;;;0.00;0.00;;;;;;;19.88;100.00;100663.09;5031671;28;20084;-45
2023/07/29 09:50:17;;;;;;;0.00;0.00;;;;;;;19.85;100.00;100640.91;5033339;28;20499;-45
2023/07/29 09:52:43;;;;;;;0.00;0.00;;;;;;;19.85;100.00;100644.50;5032214;28;20021;-44
2023/07/29 09:55:13;;;;;;;0.00;0.00;;;;;;;19.81;100.00;100646.06;5031371;28;20391;-47
2023/07/29 09:57:40;;;;;;;0.00;0.00;;;;;;;19.56;100.00;100646.41;5032101;28;20183;-45
2023/07/29 10:00:10;;;;;;;0.00;0.00;;;;;;;19.55;100.00;100641.19;5032414;28;20028;-45
2023/07/29 10:02:37;;;;;;;0.00;0.00;;;;;;;19.42;100.00;100650.53;5031204;28;20029;-44
2023/07/29 10:05:03;;;;;;;0.00;0.00;;;;;;;19.24;100.00;100654.28;5032537;28;20029;-43
2023/07/29 10:07:29;;;;;;;0.00;0.00;;;;;;;19.14;100.00;100663.13;5031340;28;20115;-45
2023/07/29 10:09:56;;;;;;;0.00;0.00;;;;;;;19.12;100.00;100680.81;5014706;28;20049;-46
2023/07/29 10:12:21;;;;;;;0.00;0.00;;;;;;;18.93;100.00;100688.31;5047573;28;20068;-46
2023/07/29 10:14:48;;;;;;;0.00;0.00;;;;;;;18.79;100.00;100709.56;5032375;28;20498;-48
2023/07/29 10:17:15;;;;;;;0.00;0.00;;;;;;;18.48;100.00;100714.28;5030733;28;20056;-46
2023/07/29 10:19:42;;;;;;;;;;;;;;;18.49;100.00;100726.88;5032251;28;20395;-47
2023/07/29 10:22:08;;;;;;;0.00;0.00;;;;;;;18.65;100.00;100719.88;5030774;28;19909;-44
2023/07/29 10:24:34;;;;;;;0.00;0.00;;;;;;;18.77;100.00;100731.63;5032074;28;20356;-47
2023/07/29 10:27:01;;;;;;;0.00;0.00;;;;;;;18.99;100.00;100731.00;5047507;28;20456;-48
2023/07/29 10:29:38;;;;;;;0.00;0.00;;;;;;;18.83;100.00;100710.75;5031591;28;20557;-44
2023/07/29 10:32:05;;;;;;;0.00;0.00;;;;;;;18.76;100.00;100718.22;5032018;28;20537;-46
2023/07/29 10:34:31;;;;;;;0.00;0.00;;;;;;;18.71;100.00;100712.63;5030338;28;20025;-46
2023/07/29 10:36:57;;;;;;;0.00;0.00;;;;;;;18.60;100.00;100715.13;5031595;28;20550;-46
2023/07/29 10:39:24;;;;;;;0.00;0.00;;;;;;;18.54;100.00;100716.09;5029868;28;20021;-44
2023/07/29 10:42:00;;;;;;;;;;;;;;;18.50;100.00;100723.06;5031956;28;20483;-45
2023/07/29 10:44:49;;;;;;;0.00;0.00;;;;;;;18.42;100.00;100720.69;5031821;28;20322;-47
2023/07/29 10:47:25;;;;;;;0.00;0.00;;;;;;;18.36;100.00;100727.09;5030968;28;20127;-47
2023/07/29 10:49:57;;;;;;;0.00;0.00;;;;;;;18.36;100.00;100716.19;5031938;28;20053;-46
2023/07/29 10:52:35;;;;;;;0.00;0.00;;;;;;;18.44;100.00;100718.56;5032104;28;20025;-46
2023/07/29 10:55:01;;;;;;;0.00;0.00;;;;;;;18.59;100.00;100723.56;5032333;28;20454;-46
2023/07/29 10:57:34;;;;;;;0.00;0.00;;;;;;;18.66;100.00;100718.78;5032313;28;20093;-47
2023/07/29 11:00:00;;;;;;;0.00;0.00;;;;;;;18.81;100.00;100694.63;5050681;28;20494;-46
2023/07/29 11:02:32;;;;;;;0.00;0.00;;;;;;;19.06;100.00;100697.06;5051196;28;20160;-48
2023/07/29 11:04:59;;;;;;;0.00;0.00;;;;;;;19.24;100.00;100685.13;5050893;28;20036;-48
2023/07/29 11:07:26;;;;;;;0.00;0.00;;;;;;;19.50;100.00;100683.69;5051442;28;20085;-46
2023/07/29 11:10:00;;;;;;;0.00;0.00;;;;;;;19.48;100.00;100674.94;5050420;28;20036;-45
2023/07/29 11:12:38;;;;;;;0.00;0.00;;;;;;;19.35;100.00;100682.59;5051136;28;20017;-48
2023/07/29 11:15:04;;;;;;;0.00;0.00;;;;;;;19.35;100.00;100679.84;5051249;28;20039;-47